sensor_id;sensor_type;location;lat;lon;timestamp;pressure;altitude;pressure_sealevel;temperature;humidity
40117;BME280;25829;50.228;18.936;2022-08-21T00:00:33;98118.75;;;18.84;83.02
40117;BME280;25829;50.228;18.936;2022-08-21T00:03:34;98111.78;;;18.89;83.24
40117;BME280;25829;50.228;18.936;2022-08-21T00:06:36;98115.25;;;18.94;82.93
40117;BME280;25829;50.228;18.936;2022-08-21T00:09:38;98108.28;;;18.98;82.95
40117;BME280;25829;50.228;18.936;2022-08-21T00:12:40;98118.94;;;19.03;83.09
40117;BME280;25829;50.228;18.936;2022-08-21T00:15:41;98107.72;;;19.06;82.90
40117;BME280;25829;50.228;18.936;2022-08-21T00:18:42;98117.06;;;19.09;83.05
40117;BME280;25829;50.228;18.936;2022-08-21T00:21:42;98104.22;;;19.11;82.99
40117;BME280;25829;50.228;18.936;2022-08-21T00:24:43;98104.22;;;19.16;82.74
40117;BME280;25829;50.228;18.936;2022-08-21T00:27:44;98090.56;;;19.18;82.68
40117;BME280;25829;50.228;18.936;2022-08-21T00:30:46;98086.31;;;19.22;82.50
40117;BME280;25829;50.228;18.936;2022-08-21T00:33:47;98076.41;;;19.22;82.36
40117;BME280;25829;50.228;18.936;2022-08-21T00:36:48;98080.38;;;19.25;82.24
40117;BME280;25829;50.228;18.936;2022-08-21T00:39:49;98090.03;;;19.26;82.26
40117;BME280;25829;50.228;18.936;2022-08-21T00:42:50;98076.38;;;19.27;82.27
40117;BME280;25829;50.228;18.936;2022-08-21T00:45:51;98069.94;;;19.28;82.33
40117;BME280;25829;50.228;18.936;2022-08-21T00:48:51;98056.56;;;19.28;82.11
40117;BME280;25829;50.228;18.936;2022-08-21T00:51:58;98058.44;;;19.33;82.27
40117;BME280;25829;50.228;18.936;2022-08-21T00:55:00;98055.47;;;19.34;82.22
40117;BME280;25829;50.228;18.936;2022-08-21T00:58:01;98053.06;;;19.38;82.15
40117;BME280;25829;50.228;18.936;2022-08-21T01:01:05;98040.75;;;19.37;81.97
40117;BME280;25829;50.228;18.936;2022-08-21T01:04:07;98033.31;;;19.29;82.10
40117;BME280;25829;50.228;18.936;2022-08-21T01:07:08;98022.97;;;19.12;82.83
40117;BME280;25829;50.228;18.936;2022-08-21T01:10:09;98028.06;;;19.08;83.19
40117;BME280;25829;50.228;18.936;2022-08-21T01:13:12;98021.88;;;19.13;83.37
40117;BME280;25829;50.228;18.936;2022-08-21T01:16:17;98024.81;;;19.17;83.36
40117;BME280;25829;50.228;18.936;2022-08-21T01:19:20;98030.16;;;19.22;83.34
40117;BME280;25829;50.228;18.936;2022-08-21T01:22:21;98025.03;;;19.25;83.13
40117;BME280;25829;50.228;18.936;2022-08-21T01:25:22;98027.97;;;19.29;83.30
40117;BME280;25829;50.228;18.936;2022-08-21T01:28:23;98019.13;;;19.33;82.86
40117;BME280;25829;50.228;18.936;2022-08-21T01:31:26;98019.63;;;19.35;82.83
40117;BME280;25829;50.228;18.936;2022-08-21T01:34:27;98005.19;;;19.37;82.85
40117;BME280;25829;50.228;18.936;2022-08-21T01:37:28;98006.00;;;19.37;82.80
40117;BME280;25829;50.228;18.936;2022-08-21T01:40:29;98000.34;;;19.39;82.74
40117;BME280;25829;50.228;18.936;2022-08-21T01:43:30;97997.16;;;19.37;82.65
40117;BME280;25829;50.228;18.936;2022-08-21T01:46:31;97988.59;;;19.40;82.52
40117;BME280;25829;50.228;18.936;2022-08-21T01:49:32;97984.84;;;19.41;82.45
40117;BME280;25829;50.228;18.936;2022-08-21T01:52:33;97979.78;;;19.39;82.37
40117;BME280;25829;50.228;18.936;2022-08-21T01:55:33;97969.06;;;19.39;82.27
40117;BME280;25829;50.228;18.936;2022-08-21T01:58:35;97961.84;;;19.40;82.21
40117;BME280;25829;50.228;18.936;2022-08-21T02:01:36;97960.22;;;19.39;82.24
40117;BME280;25829;50.228;18.936;2022-08-21T02:04:39;97955.69;;;19.39;82.26
40117;BME280;25829;50.228;18.936;2022-08-21T02:07:43;97960.53;;;19.37;82.14
40117;BME280;25829;50.228;18.936;2022-08-21T02:10:44;97950.91;;;19.36;82.13
40117;BME280;25829;50.228;18.936;2022-08-21T02:13:44;97962.94;;;19.33;82.20
40117;BME280;25829;50.228;18.936;2022-08-21T02:16:45;97952.25;;;19.33;82.44
40117;BME280;25829;50.228;18.936;2022-08-21T02:19:46;97960.28;;;19.33;82.49
40117;BME280;25829;50.228;18.936;2022-08-21T02:22:47;97957.84;;;19.32;82.33
40117;BME280;25829;50.228;18.936;2022-08-21T02:25:48;97954.16;;;19.28;82.66
40117;BME280;25829;50.228;18.936;2022-08-21T02:28:49;97957.94;;;19.22;82.75
40117;BME280;25829;50.228;18.936;2022-08-21T02:31:50;97951.53;;;19.18;83.21
40117;BME280;25829;50.228;18.936;2022-08-21T02:34:50;97951.53;;;19.18;83.23
40117;BME280;25829;50.228;18.936;2022-08-21T02:37:57;97952.06;;;19.20;83.30
40117;BME280;25829;50.228;18.936;2022-08-21T02:40:58;97941.63;;;19.23;83.19
40117;BME280;25829;50.228;18.936;2022-08-21T02:43:59;97944.53;;;19.27;83.10
40117;BME280;25829;50.228;18.936;2022-08-21T02:47:00;97955.47;;;19.30;83.22
40117;BME280;25829;50.228;18.936;2022-08-21T02:50:01;97954.13;;;19.33;83.08
40117;BME280;25829;50.228;18.936;2022-08-21T02:53:03;97966.13;;;19.35;83.20
40117;BME280;25829;50.228;18.936;2022-08-21T02:56:06;97969.88;;;19.40;83.12
40117;BME280;25829;50.228;18.936;2022-08-21T02:59:08;97967.69;;;19.42;83.19
40117;BME280;25829;50.228;18.936;2022-08-21T03:02:08;97960.22;;;19.44;83.12
40117;BME280;25829;50.228;18.936;2022-08-21T03:05:11;97966.88;;;19.46;82.93
40117;BME280;25829;50.228;18.936;2022-08-21T03:08:14;97950.59;;;19.43;82.64
40117;BME280;25829;50.228;18.936;2022-08-21T03:11:16;97958.63;;;19.38;83.05
40117;BME280;25829;50.228;18.936;2022-08-21T03:14:17;97961.88;;;19.34;83.33
40117;BME280;25829;50.228;18.936;2022-08-21T03:17:18;97964.28;;;19.31;83.63
40117;BME280;25829;50.228;18.936;2022-08-21T03:20:23;97970.19;;;19.33;83.62
40117;BME280;25829;50.228;18.936;2022-08-21T03:23:25;97965.38;;;19.30;83.85
40117;BME280;25829;50.228;18.936;2022-08-21T03:26:25;97970.97;;;19.28;84.10
40117;BME280;25829;50.228;18.936;2022-08-21T03:29:26;97974.75;;;19.27;84.37
40117;BME280;25829;50.228;18.936;2022-08-21T03:32:27;97976.88;;;19.30;84.32
40117;BME280;25829;50.228;18.936;2022-08-21T03:35:28;97992.31;;;19.39;84.43
40117;BME280;25829;50.228;18.936;2022-08-21T03:38:30;97993.09;;;19.44;84.14
40117;BME280;25829;50.228;18.936;2022-08-21T03:41:32;97998.16;;;19.46;83.96
40117;BME280;25829;50.228;18.936;2022-08-21T03:44:33;98003.75;;;19.49;84.01
40117;BME280;25829;50.228;18.936;2022-08-21T03:47:34;97998.09;;;19.56;83.96
40117;BME280;25829;50.228;18.936;2022-08-21T03:50:38;97994.88;;;19.59;83.77
40117;BME280;25829;50.228;18.936;2022-08-21T03:53:39;97998.88;;;19.62;83.88
40117;BME280;25829;50.228;18.936;2022-08-21T03:56:40;97996.47;;;19.65;83.76
40117;BME280;25829;50.228;18.936;2022-08-21T03:59:42;97999.41;;;19.69;83.87
40117;BME280;25829;50.228;18.936;2022-08-21T04:02:44;97997.53;;;19.69;83.45
40117;BME280;25829;50.228;18.936;2022-08-21T04:05:45;97993.78;;;19.70;83.45
40117;BME280;25829;50.228;18.936;2022-08-21T04:08:46;97981.75;;;19.68;83.46
40117;BME280;25829;50.228;18.936;2022-08-21T04:11:46;97991.97;;;19.55;84.02
40117;BME280;25829;50.228;18.936;2022-08-21T04:14:48;97999.25;;;19.45;84.47
40117;BME280;25829;50.228;18.936;2022-08-21T04:17:49;97988.03;;;19.43;84.51
40117;BME280;25829;50.228;18.936;2022-08-21T04:20:51;97989.63;;;19.44;84.57
40117;BME280;25829;50.228;18.936;2022-08-21T04:23:56;98000.03;;;19.50;84.26
40117;BME280;25829;50.228;18.936;2022-08-21T04:26:57;97992.75;;;19.56;84.29
40117;BME280;25829;50.228;18.936;2022-08-21T04:29:58;97996.22;;;19.62;84.31
40117;BME280;25829;50.228;18.936;2022-08-21T04:32:59;97999.41;;;19.64;84.22
40117;BME280;25829;50.228;18.936;2022-08-21T04:36:00;98002.06;;;19.69;84.22
40117;BME280;25829;50.228;18.936;2022-08-21T04:39:02;98003.13;;;19.73;83.90
40117;BME280;25829;50.228;18.936;2022-08-21T04:42:03;97994.53;;;19.76;83.98
40117;BME280;25829;50.228;18.936;2022-08-21T04:45:08;97998.78;;;19.77;83.92
40117;BME280;25829;50.228;18.936;2022-08-21T04:48:11;97992.88;;;19.80;83.94
40117;BME280;25829;50.228;18.936;2022-08-21T04:51:16;98000.09;;;19.85;83.78
40117;BME280;25829;50.228;18.936;2022-08-21T04:54:20;97994.19;;;19.88;83.61
40117;BME280;25829;50.228;18.936;2022-08-21T04:57:22;97999.78;;;19.91;83.75
40117;BME280;25829;50.228;18.936;2022-08-21T05:00:24;98015.00;;;19.96;83.66
40117;BME280;25829;50.228;18.936;2022-08-21T05:03:25;98013.13;;;19.96;83.83
40117;BME280;25829;50.228;18.936;2022-08-21T05:06:30;98017.94;;;19.94;83.65
40117;BME280;25829;50.228;18.936;2022-08-21T05:09:33;98022.25;;;19.90;83.87
40117;BME280;25829;50.228;18.936;2022-08-21T05:12:35;98024.94;;;19.90;84.00
40117;BME280;25829;50.228;18.936;2022-08-21T05:15:36;98031.91;;;19.91;83.90
40117;BME280;25829;50.228;18.936;2022-08-21T05:18:37;98029.75;;;19.93;83.82
40117;BME280;25829;50.228;18.936;2022-08-21T05:21:42;98022.50;;;19.94;83.75
40117;BME280;25829;50.228;18.936;2022-08-21T05:24:44;98015.63;;;19.88;83.90
40117;BME280;25829;50.228;18.936;2022-08-21T05:27:44;98023.66;;;19.83;84.01
40117;BME280;25829;50.228;18.936;2022-08-21T05:30:45;98029.56;;;19.85;84.40
40117;BME280;25829;50.228;18.936;2022-08-21T05:33:46;98037.53;;;19.90;84.33
40117;BME280;25829;50.228;18.936;2022-08-21T05:36:47;98044.47;;;19.96;84.25
40117;BME280;25829;50.228;18.936;2022-08-21T05:39:48;98046.56;;;19.99;84.25
40117;BME280;25829;50.228;18.936;2022-08-21T05:42:50;98049.50;;;20.02;83.99
40117;BME280;25829;50.228;18.936;2022-08-21T05:45:51;98048.41;;;20.03;83.88
40117;BME280;25829;50.228;18.936;2022-08-21T05:48:52;98048.41;;;20.03;83.87
40117;BME280;25829;50.228;18.936;2022-08-21T05:51:52;98052.16;;;20.02;83.74
40117;BME280;25829;50.228;18.936;2022-08-21T05:54:53;98043.91;;;19.99;83.64
40117;BME280;25829;50.228;18.936;2022-08-21T05:57:54;98046.03;;;19.97;83.94
40117;BME280;25829;50.228;18.936;2022-08-21T06:00:55;98049.50;;;19.97;83.93
40117;BME280;25829;50.228;18.936;2022-08-21T06:03:56;98049.81;;;19.96;84.02
40117;BME280;25829;50.228;18.936;2022-08-21T06:06:57;98051.69;;;19.95;84.03
40117;BME280;25829;50.228;18.936;2022-08-21T06:09:58;98053.00;;;19.98;84.12
40117;BME280;25829;50.228;18.936;2022-08-21T06:12:58;98043.91;;;19.99;84.16
40117;BME280;25829;50.228;18.936;2022-08-21T06:16:05;98039.38;;;19.94;83.75
40117;BME280;25829;50.228;18.936;2022-08-21T06:19:06;98056.03;;;19.86;83.48
40117;BME280;25829;50.228;18.936;2022-08-21T06:22:07;98054.25;;;19.71;82.99
40117;BME280;25829;50.228;18.936;2022-08-21T06:25:08;98062.56;;;19.59;82.80
40117;BME280;25829;50.228;18.936;2022-08-21T06:28:10;98059.69;;;19.51;83.03
40117;BME280;25829;50.228;18.936;2022-08-21T06:31:17;98069.34;;;19.47;83.03
40117;BME280;25829;50.228;18.936;2022-08-21T06:34:18;98064.00;;;19.42;83.12
40117;BME280;25829;50.228;18.936;2022-08-21T06:37:19;98060.53;;;19.41;82.60
40117;BME280;25829;50.228;18.936;2022-08-21T06:40:20;98070.72;;;19.39;82.58
40117;BME280;25829;50.228;18.936;2022-08-21T06:43:21;98063.78;;;19.33;82.23
40117;BME280;25829;50.228;18.936;2022-08-21T06:46:28;98073.19;;;19.25;82.13
40117;BME280;25829;50.228;18.936;2022-08-21T06:49:29;98073.22;;;19.15;81.84
40117;BME280;25829;50.228;18.936;2022-08-21T06:52:30;98076.97;;;19.09;82.15
40117;BME280;25829;50.228;18.936;2022-08-21T06:55:30;98078.56;;;19.10;82.38
40117;BME280;25829;50.228;18.936;2022-08-21T06:58:31;98084.16;;;19.14;82.25
40117;BME280;25829;50.228;18.936;2022-08-21T07:01:32;98081.78;;;19.07;81.36
40117;BME280;25829;50.228;18.936;2022-08-21T07:04:33;98086.88;;;19.03;81.51
40117;BME280;25829;50.228;18.936;2022-08-21T07:07:34;98082.34;;;18.99;80.44
40117;BME280;25829;50.228;18.936;2022-08-21T07:10:34;98090.13;;;18.85;80.32
40117;BME280;25829;50.228;18.936;2022-08-21T07:13:36;98097.84;;;18.76;79.39
40117;BME280;25829;50.228;18.936;2022-08-21T07:16:37;98097.88;;;18.71;79.71
40117;BME280;25829;50.228;18.936;2022-08-21T07:19:37;98100.81;;;18.70;79.80
40117;BME280;25829;50.228;18.936;2022-08-21T07:22:40;98099.75;;;18.71;79.50
40117;BME280;25829;50.228;18.936;2022-08-21T07:25:41;98098.38;;;18.73;79.81
40117;BME280;25829;50.228;18.936;2022-08-21T07:28:42;98097.31;;;18.79;79.99
40117;BME280;25829;50.228;18.936;2022-08-21T07:31:43;98098.94;;;18.85;80.08
40117;BME280;25829;50.228;18.936;2022-08-21T07:34:44;98110.69;;;18.90;79.71
40117;BME280;25829;50.228;18.936;2022-08-21T07:37:45;98106.16;;;18.90;79.14
40117;BME280;25829;50.228;18.936;2022-08-21T07:40:47;98105.34;;;18.95;78.99
40117;BME280;25829;50.228;18.936;2022-08-21T07:43:49;98106.41;;;18.99;79.31
40117;BME280;25829;50.228;18.936;2022-08-21T07:46:50;98090.63;;;19.02;79.67
40117;BME280;25829;50.228;18.936;2022-08-21T07:49:51;98098.38;;;19.04;79.23
40117;BME280;25829;50.228;18.936;2022-08-21T07:52:51;98099.69;;;19.12;79.31
40117;BME280;25829;50.228;18.936;2022-08-21T07:55:53;98096.72;;;19.18;79.27
40117;BME280;25829;50.228;18.936;2022-08-21T07:58:57;98098.06;;;19.26;79.33
40117;BME280;25829;50.228;18.936;2022-08-21T08:01:58;98103.06;;;19.38;79.24
40117;BME280;25829;50.228;18.936;2022-08-21T08:05:07;98102.25;;;19.47;79.25
40117;BME280;25829;50.228;18.936;2022-08-21T08:08:09;98094.97;;;19.58;79.27
40117;BME280;25829;50.228;18.936;2022-08-21T08:11:11;98090.69;;;19.67;79.01
40117;BME280;25829;50.228;18.936;2022-08-21T08:14:15;98088.50;;;19.74;79.04
40117;BME280;25829;50.228;18.936;2022-08-21T08:17:16;98073.13;;;19.90;79.07
40117;BME280;25829;50.228;18.936;2022-08-21T08:20:17;98080.75;;;20.12;78.90
40117;BME280;25829;50.228;18.936;2022-08-21T08:23:18;98087.50;;;20.39;78.25
40117;BME280;25829;50.228;18.936;2022-08-21T08:26:19;98084.91;;;20.63;77.88
40117;BME280;25829;50.228;18.936;2022-08-21T08:29:21;98078.56;;;20.83;76.94
40117;BME280;25829;50.228;18.936;2022-08-21T08:32:22;98088.28;;;21.03;76.40
40117;BME280;25829;50.228;18.936;2022-08-21T08:35:23;98087.25;;;21.22;76.41
40117;BME280;25829;50.228;18.936;2022-08-21T08:38:25;98084.13;;;21.39;75.89
40117;BME280;25829;50.228;18.936;2022-08-21T08:41:26;98083.13;;;21.54;75.19
40117;BME280;25829;50.228;18.936;2022-08-21T08:44:27;98082.94;;;21.69;74.95
40117;BME280;25829;50.228;18.936;2022-08-21T08:47:30;98083.75;;;21.89;74.75
40117;BME280;25829;50.228;18.936;2022-08-21T08:50:47;98089.63;;;22.10;73.21
40117;BME280;25829;50.228;18.936;2022-08-21T08:53:57;98085.91;;;22.25;73.15
40117;BME280;25829;50.228;18.936;2022-08-21T08:57:00;98088.84;;;22.42;72.95
40117;BME280;25829;50.228;18.936;2022-08-21T09:00:12;98084.31;;;22.56;71.64
40117;BME280;25829;50.228;18.936;2022-08-21T09:03:15;98079.38;;;22.63;71.35
40117;BME280;25829;50.228;18.936;2022-08-21T09:10:05;98081.13;;;23.01;69.17
40117;BME280;25829;50.228;18.936;2022-08-21T09:13:13;98075.34;;;23.21;70.51
40117;BME280;25829;50.228;18.936;2022-08-21T09:16:47;98078.94;;;23.30;67.93
40117;BME280;25829;50.228;18.936;2022-08-21T09:20:41;98086.00;;;23.26;68.31
40117;BME280;25829;50.228;18.936;2022-08-21T09:26:47;98093.66;;;22.92;68.61
40117;BME280;25829;50.228;18.936;2022-08-21T09:29:53;98094.16;;;22.80;68.70
40117;BME280;25829;50.228;18.936;2022-08-21T09:32:54;98094.41;;;22.64;68.27
40117;BME280;25829;50.228;18.936;2022-08-21T09:35:56;98100.44;;;22.56;68.48
40117;BME280;25829;50.228;18.936;2022-08-21T09:38:59;98096.22;;;22.50;68.43
40117;BME280;25829;50.228;18.936;2022-08-21T09:42:02;98093.22;;;22.38;68.54
40117;BME280;25829;50.228;18.936;2022-08-21T09:45:15;98085.75;;;22.35;68.83
40117;BME280;25829;50.228;18.936;2022-08-21T09:48:21;98082.53;;;22.33;68.92
40117;BME280;25829;50.228;18.936;2022-08-21T09:51:31;98082.06;;;22.31;68.94
40117;BME280;25829;50.228;18.936;2022-08-21T09:54:39;98085.22;;;22.33;69.10
40117;BME280;25829;50.228;18.936;2022-08-21T09:57:40;98091.41;;;22.33;68.85
40117;BME280;25829;50.228;18.936;2022-08-21T10:00:58;98094.50;;;22.27;67.77
40117;BME280;25829;50.228;18.936;2022-08-21T10:04:04;98096.03;;;22.14;68.49
40117;BME280;25829;50.228;18.936;2022-08-21T10:07:13;98099.59;;;22.09;69.28
40117;BME280;25829;50.228;18.936;2022-08-21T10:10:19;98109.66;;;21.99;69.17
40117;BME280;25829;50.228;18.936;2022-08-21T10:17:01;98111.31;;;21.76;69.25
40117;BME280;25829;50.228;18.936;2022-08-21T10:20:23;98117.31;;;21.67;69.31
40117;BME280;25829;50.228;18.936;2022-08-21T10:24:00;98110.22;;;21.58;69.45
40117;BME280;25829;50.228;18.936;2022-08-21T10:27:32;98110.81;;;21.50;69.97
40117;BME280;25829;50.228;18.936;2022-08-21T10:34:30;98111.69;;;21.45;70.38
40117;BME280;25829;50.228;18.936;2022-08-21T10:44:23;98119.00;;;21.39;70.19
40117;BME280;25829;50.228;18.936;2022-08-21T10:47:52;98106.16;;;21.36;69.72
40117;BME280;25829;50.228;18.936;2022-08-21T10:51:04;98109.44;;;21.33;70.28
40117;BME280;25829;50.228;18.936;2022-08-21T10:54:18;98108.59;;;21.33;70.01
40117;BME280;25829;50.228;18.936;2022-08-21T11:00:45;98112.50;;;21.21;69.90
40117;BME280;25829;50.228;18.936;2022-08-21T11:03:53;98120.31;;;21.18;69.98
40117;BME280;25829;50.228;18.936;2022-08-21T11:07:07;98120.59;;;21.16;70.40
40117;BME280;25829;50.228;18.936;2022-08-21T11:14:18;98117.78;;;21.03;70.23
40117;BME280;25829;50.228;18.936;2022-08-21T11:17:44;98110.56;;;20.98;70.91
40117;BME280;25829;50.228;18.936;2022-08-21T11:20:56;98115.19;;;20.92;71.09
40117;BME280;25829;50.228;18.936;2022-08-21T11:24:29;98117.03;;;20.97;71.50
40117;BME280;25829;50.228;18.936;2022-08-21T11:27:58;98115.13;;;20.97;71.48
40117;BME280;25829;50.228;18.936;2022-08-21T11:44:23;98114.75;;;21.09;71.40
40117;BME280;25829;50.228;18.936;2022-08-21T11:50:48;98113.94;;;21.09;71.76
40117;BME280;25829;50.228;18.936;2022-08-21T11:57:39;98121.06;;;20.94;71.38
40117;BME280;25829;50.228;18.936;2022-08-21T12:00:48;98127.06;;;20.86;71.91
40117;BME280;25829;50.228;18.936;2022-08-21T12:04:01;98116.97;;;20.73;71.88
40117;BME280;25829;50.228;18.936;2022-08-21T12:07:15;98117.31;;;20.66;71.66
40117;BME280;25829;50.228;18.936;2022-08-21T12:10:18;98123.84;;;20.55;71.81
40117;BME280;25829;50.228;18.936;2022-08-21T12:13:28;98121.22;;;20.50;71.68
40117;BME280;25829;50.228;18.936;2022-08-21T12:16:31;98120.19;;;20.41;71.78
40117;BME280;25829;50.228;18.936;2022-08-21T12:19:32;98127.44;;;20.35;71.85
40117;BME280;25829;50.228;18.936;2022-08-21T12:22:39;98130.44;;;20.28;72.11
40117;BME280;25829;50.228;18.936;2022-08-21T12:25:44;98129.72;;;20.18;72.04
40117;BME280;25829;50.228;18.936;2022-08-21T12:28:47;98123.91;;;20.05;72.15
40117;BME280;25829;50.228;18.936;2022-08-21T12:32:04;98118.31;;;20.02;72.46
40117;BME280;25829;50.228;18.936;2022-08-21T12:35:25;98124.22;;;19.99;72.34
40117;BME280;25829;50.228;18.936;2022-08-21T12:38:28;98138.66;;;19.98;72.57
40117;BME280;25829;50.228;18.936;2022-08-21T12:41:47;98127.47;;;19.91;72.30
40117;BME280;25829;50.228;18.936;2022-08-21T12:45:02;98133.44;;;19.77;72.11
40117;BME280;25829;50.228;18.936;2022-08-21T12:51:26;98127.16;;;19.38;72.25
40117;BME280;25829;50.228;18.936;2022-08-21T12:54:32;98132.28;;;19.24;72.38
40117;BME280;25829;50.228;18.936;2022-08-21T12:57:40;98131.78;;;19.06;72.48
40117;BME280;25829;50.228;18.936;2022-08-21T13:00:48;98134.25;;;18.88;72.80
40117;BME280;25829;50.228;18.936;2022-08-21T13:03:51;98147.84;;;18.81;73.48
40117;BME280;25829;50.228;18.936;2022-08-21T13:06:58;98142.78;;;18.74;73.34
40117;BME280;25829;50.228;18.936;2022-08-21T13:10:06;98142.25;;;18.57;73.72
40117;BME280;25829;50.228;18.936;2022-08-21T13:13:16;98143.81;;;18.48;74.15
40117;BME280;25829;50.228;18.936;2022-08-21T13:16:26;98149.16;;;18.48;74.39
40117;BME280;25829;50.228;18.936;2022-08-21T13:19:28;98148.63;;;18.40;74.57
40117;BME280;25829;50.228;18.936;2022-08-21T13:22:30;98135.81;;;18.32;74.82
40117;BME280;25829;50.228;18.936;2022-08-21T13:25:36;98148.91;;;18.29;75.06
40117;BME280;25829;50.228;18.936;2022-08-21T13:28:37;98147.00;;;18.24;75.40
40117;BME280;25829;50.228;18.936;2022-08-21T13:31:40;98154.47;;;18.17;75.52
40117;BME280;25829;50.228;18.936;2022-08-21T13:34:42;98151.25;;;18.10;75.80
40117;BME280;25829;50.228;18.936;2022-08-21T13:37:45;98157.41;;;18.05;75.77
40117;BME280;25829;50.228;18.936;2022-08-21T13:40:50;98169.38;;;17.98;75.62
40117;BME280;25829;50.228;18.936;2022-08-21T13:44:00;98147.47;;;17.96;76.05
40117;BME280;25829;50.228;18.936;2022-08-21T13:47:04;98154.38;;;17.91;76.02
40117;BME280;25829;50.228;18.936;2022-08-21T13:50:06;98158.94;;;17.91;76.24
40117;BME280;25829;50.228;18.936;2022-08-21T13:56:45;98155.16;;;17.82;76.48
40117;BME280;25829;50.228;18.936;2022-08-21T13:59:46;98169.56;;;17.81;76.60
40117;BME280;25829;50.228;18.936;2022-08-21T14:02:49;98162.31;;;17.76;76.47
40117;BME280;25829;50.228;18.936;2022-08-21T14:05:53;98172.22;;;17.76;76.67
40117;BME280;25829;50.228;18.936;2022-08-21T14:09:11;98177.28;;;17.77;76.79
40117;BME280;25829;50.228;18.936;2022-08-21T14:12:19;98176.22;;;17.78;76.73
40117;BME280;25829;50.228;18.936;2022-08-21T14:15:26;98179.97;;;17.82;76.57
40117;BME280;25829;50.228;18.936;2022-08-21T14:18:29;98179.44;;;17.80;76.48
40117;BME280;25829;50.228;18.936;2022-08-21T14:21:39;98176.22;;;17.78;76.58
40117;BME280;25829;50.228;18.936;2022-08-21T14:24:40;98183.69;;;17.76;76.57
40117;BME280;25829;50.228;18.936;2022-08-21T14:31:17;98184.97;;;17.68;76.43
40117;BME280;25829;50.228;18.936;2022-08-21T14:34:18;98182.06;;;17.70;76.66
40117;BME280;25829;50.228;18.936;2022-08-21T14:37:19;98187.66;;;17.68;76.53
40117;BME280;25829;50.228;18.936;2022-08-21T14:40:23;98178.56;;;17.64;76.36
40117;BME280;25829;50.228;18.936;2022-08-21T14:43:26;98180.13;;;17.55;76.52
40117;BME280;25829;50.228;18.936;2022-08-21T14:46:29;98172.06;;;17.45;76.90
40117;BME280;25829;50.228;18.936;2022-08-21T14:49:30;98181.41;;;17.42;77.08
40117;BME280;25829;50.228;18.936;2022-08-21T14:52:32;98181.13;;;17.39;77.21
40117;BME280;25829;50.228;18.936;2022-08-21T14:55:33;98182.72;;;17.40;77.26
40117;BME280;25829;50.228;18.936;2022-08-21T14:59:03;98181.66;;;17.41;77.10
40117;BME280;25829;50.228;18.936;2022-08-21T15:02:08;98184.06;;;17.42;77.17
40117;BME280;25829;50.228;18.936;2022-08-21T15:05:09;98187.28;;;17.44;77.13
40117;BME280;25829;50.228;18.936;2022-08-21T15:08:11;98188.34;;;17.43;76.67
40117;BME280;25829;50.228;18.936;2022-08-21T15:11:19;98191.28;;;17.42;76.79
40117;BME280;25829;50.228;18.936;2022-08-21T15:14:23;98189.88;;;17.34;77.02
40117;BME280;25829;50.228;18.936;2022-08-21T15:17:24;98189.63;;;17.36;77.10
40117;BME280;25829;50.228;18.936;2022-08-21T15:20:25;98194.16;;;17.35;77.10
40117;BME280;25829;50.228;18.936;2022-08-21T15:23:26;98198.16;;;17.38;77.31
40117;BME280;25829;50.228;18.936;2022-08-21T15:26:27;98195.25;;;17.39;77.01
40117;BME280;25829;50.228;18.936;2022-08-21T15:29:29;98199.53;;;17.40;76.84
40117;BME280;25829;50.228;18.936;2022-08-21T15:32:29;98198.44;;;17.41;77.02
40117;BME280;25829;50.228;18.936;2022-08-21T15:35:31;98207.28;;;17.42;76.96
40117;BME280;25829;50.228;18.936;2022-08-21T15:38:32;98208.59;;;17.39;76.71
40117;BME280;25829;50.228;18.936;2022-08-21T15:41:33;98211.22;;;17.34;77.05
40117;BME280;25829;50.228;18.936;2022-08-21T15:44:33;98218.13;;;17.30;77.01
40117;BME280;25829;50.228;18.936;2022-08-21T15:47:36;98206.09;;;17.28;76.97
40117;BME280;25829;50.228;18.936;2022-08-21T15:50:38;98197.81;;;17.24;76.79
40117;BME280;25829;50.228;18.936;2022-08-21T15:53:38;98199.16;;;17.21;76.88
40117;BME280;25829;50.228;18.936;2022-08-21T15:56:43;98194.56;;;17.17;77.07
40117;BME280;25829;50.228;18.936;2022-08-21T15:59:50;98193.25;;;17.14;77.01
40117;BME280;25829;50.228;18.936;2022-08-21T16:02:54;98200.91;;;17.11;77.06
40117;BME280;25829;50.228;18.936;2022-08-21T16:05:55;98214.75;;;17.08;77.14
40117;BME280;25829;50.228;18.936;2022-08-21T16:08:58;98214.97;;;17.01;77.37
40117;BME280;25829;50.228;18.936;2022-08-21T16:12:00;98228.50;;;16.94;77.47
40117;BME280;25829;50.228;18.936;2022-08-21T16:15:05;98222.91;;;16.96;77.79
40117;BME280;25829;50.228;18.936;2022-08-21T16:18:07;98227.44;;;16.95;77.90
40117;BME280;25829;50.228;18.936;2022-08-21T16:21:08;98225.78;;;16.89;77.90
40117;BME280;25829;50.228;18.936;2022-08-21T16:24:09;98228.16;;;16.86;77.82
40117;BME280;25829;50.228;18.936;2022-08-21T16:27:09;98230.59;;;16.87;77.95
40117;BME280;25829;50.228;18.936;2022-08-21T16:30:11;98236.16;;;16.86;77.87
40117;BME280;25829;50.228;18.936;2022-08-21T16:36:28;98239.56;;;16.76;78.26
40117;BME280;25829;50.228;18.936;2022-08-21T16:39:29;98249.69;;;16.79;78.14
40117;BME280;25829;50.228;18.936;2022-08-21T16:42:30;98242.81;;;16.83;78.28
40117;BME280;25829;50.228;18.936;2022-08-21T16:45:31;98235.13;;;16.87;78.22
40117;BME280;25829;50.228;18.936;2022-08-21T16:48:31;98238.56;;;16.87;78.38
40117;BME280;25829;50.228;18.936;2022-08-21T16:51:32;98240.09;;;16.78;78.04
40117;BME280;25829;50.228;18.936;2022-08-21T16:54:33;98224.06;;;16.73;78.28
40117;BME280;25829;50.228;18.936;2022-08-21T16:57:35;98217.84;;;16.62;78.58
40117;BME280;25829;50.228;18.936;2022-08-21T17:00:36;98208.94;;;16.51;79.13
40117;BME280;25829;50.228;18.936;2022-08-21T17:03:39;98217.75;;;16.52;79.42